Time;durP1;ratioP1;P1;durP2;ratioP2;P2;SDS_P1;SDS_P2;PMS_P1;PMS_P2;Temp;Humidity;BMP_temperature;BMP_pressure;BME280_temperature;BME280_humidity;BME280_pressure;Samples;Min_cycle;Max_cycle;Signal;HPM_P1;HPM_P2
2022/01/27 00:01:55;;;;;;;41.08;17.30;;;;;;;5.23;100.00;102297.31;4856030;29;20482;-65
2022/01/27 00:04:26;;;;;;;36.47;15.93;;;;;;;5.24;100.00;102291.19;4855592;29;20468;-65
2022/01/27 00:06:52;;;;;;;37.08;16.50;;;;;;;5.24;100.00;102291.19;4855472;29;20041;-66
2022/01/27 00:09:30;;;;;;;42.10;17.13;;;;;;;5.23;100.00;102276.31;4852451;29;20095;-66
2022/01/27 00:11:56;;;;;;;39.38;15.73;;;;;;;5.23;100.00;102273.69;4853394;29;20041;-66
2022/01/27 00:14:22;;;;;;;35.80;16.55;;;;;;;5.22;100.00;102258.81;4861508;29;20049;-66
2022/01/27 00:16:59;;;;;;;38.80;16.33;;;;;;;5.19;100.00;102248.31;4854531;29;20417;-66
2022/01/27 00:19:25;;;;;;;32.05;15.75;;;;;;;5.18;100.00;102253.56;4855522;29;20037;-66
2022/01/27 00:21:51;;;;;;;35.35;15.63;;;;;;;5.16;100.00;102233.44;4836701;29;20038;-66
2022/01/27 00:24:17;;;;;;;33.97;15.77;;;;;;;5.14;100.00;102221.19;4854880;29;20044;-66
2022/01/27 00:26:43;;;;;;;37.35;16.17;;;;;;;5.11;100.00;102236.91;4853252;29;20677;-67
2022/01/27 00:29:09;;;;;;;34.60;15.10;;;;;;;5.10;100.00;102240.44;4855715;29;20084;-65
2022/01/27 00:31:34;;;;;;;34.88;15.55;;;;;;;5.07;100.00;102236.03;4838181;29;20120;-66
2022/01/27 00:34:03;;;;;;;33.17;15.35;;;;;;;5.07;100.00;102243.06;4840119;29;20060;-65
2022/01/27 00:36:33;;;;;;;33.03;15.68;;;;;;;5.05;100.00;102240.44;4836969;29;20040;-65
2022/01/27 00:38:58;;;;;;;34.88;15.93;;;;;;;5.02;100.00;102245.69;4845731;29;20485;-65
2022/01/27 00:41:24;;;;;;;33.17;15.20;;;;;;;4.99;100.00;102238.69;4854569;29;20151;-66
2022/01/27 00:43:50;;;;;;;36.83;16.00;;;;;;;4.97;100.00;102237.78;4853927;29;20663;-66
2022/01/27 00:46:17;;;;;;;43.40;17.30;;;;;;;4.97;100.00;102240.41;4855088;29;20402;-66
2022/01/27 00:49:03;;;;;;;38.50;17.70;;;;;;;4.93;100.00;102245.66;4854639;29;20092;-66
2022/01/27 00:51:34;;;;;;;39.65;17.60;;;;;;;4.88;100.00;102241.31;4854473;29;20052;-66
2022/01/27 00:54:07;;;;;;;34.63;17.02;;;;;;;4.87;100.00;102239.56;4854717;29;20041;-66
2022/01/27 00:56:50;;;;;;;43.53;18.60;;;;;;;4.85;100.00;102245.69;4855014;29;21527;-66
2022/01/27 00:59:28;;;;;;;39.60;18.27;;;;;;;4.83;100.00;102239.53;4841603;29;20061;-66
2022/01/27 01:02:09;;;;;;;40.55;19.20;;;;;;;4.82;100.00;102235.16;4854237;29;20035;-66
2022/01/27 01:04:38;;;;;;;39.50;18.92;;;;;;;4.79;100.00;102236.03;4841923;29;20040;-66
2022/01/27 01:07:05;;;;;;;45.38;19.15;;;;;;;4.78;100.00;102222.94;4860848;29;20073;-66
2022/01/27 01:14:47;;;;;;;39.47;18.00;;;;;;;4.74;100.00;102204.53;4853934;29;20033;-66
2022/01/27 01:34:11;;;;;;;43.17;19.35;;;;;;;4.60;100.00;102170.44;4843204;29;20140;-66
2022/01/27 01:36:38;;;;;;;38.83;19.52;;;;;;;4.57;100.00;102166.94;4853278;29;20461;-66
2022/01/27 01:39:04;;;;;;;40.35;19.75;;;;;;;4.55;99.51;102174.81;4853542;29;20442;-66
2022/01/27 01:41:31;;;;;;;42.22;19.63;;;;;;;4.54;99.53;102177.41;4852511;29;20045;-66
2022/01/27 01:43:57;;;;;;;42.08;20.75;;;;;;;4.52;100.00;102158.19;4853925;29;20033;-66
2022/01/27 01:46:22;;;;;;;37.83;19.10;;;;;;;4.49;99.66;102148.56;4839176;29;20036;-66
2022/01/27 01:48:48;;;;;;;40.78;19.30;;;;;;;4.47;100.00;102148.56;4845733;29;20128;-66
2022/01/27 01:51:23;;;;;;;42.55;20.08;;;;;;;4.47;99.87;102145.06;4849571;29;20523;-66
2022/01/27 01:53:49;;;;;;;41.03;18.95;;;;;;;4.45;99.99;102142.44;4859393;29;20049;-65
2022/01/27 01:56:14;;;;;;;47.67;21.50;;;;;;;4.43;100.00;102136.34;4852834;29;20037;-66
2022/01/27 01:58:40;;;;;;;40.22;19.02;;;;;;;4.41;99.95;102139.81;4853063;29;20033;-65
2022/01/27 02:01:05;;;;;;;43.30;21.17;;;;;;;4.39;99.89;102142.44;4853733;29;20045;-65
2022/01/27 02:03:30;;;;;;;46.70;20.08;;;;;;;4.38;100.00;102140.69;4852541;29;20576;-65
2022/01/27 02:05:57;;;;;;;45.88;21.65;;;;;;;4.40;99.74;102132.84;4852293;29;20049;-65
2022/01/27 02:19:17;;;;;;;43.33;21.45;;;;;;;4.48;100.00;102141.56;4850777;29;20061;-66
2022/01/27 02:21:48;;;;;;;45.08;21.35;;;;;;;4.48;99.94;102142.44;4853155;29;20036;-66
2022/01/27 02:24:15;;;;;;;49.65;22.13;;;;;;;4.50;100.00;102134.56;4835214;29;20037;-66
2022/01/27 02:26:41;;;;;;;47.22;21.75;;;;;;;4.53;100.00;102124.06;4853037;29;20041;-66
2022/01/27 02:29:07;;;;;;;45.75;20.90;;;;;;;4.55;100.00;102131.94;4852487;29;20056;-66
2022/01/27 02:31:32;;;;;;;45.95;21.65;;;;;;;4.57;100.00;102117.09;4836921;29;20449;-66
2022/01/27 02:34:00;;;;;;;51.97;22.65;;;;;;;4.59;100.00;102117.97;4850415;29;20176;-66
2022/01/27 02:36:25;;;;;;;50.25;21.90;;;;;;;4.60;100.00;102110.13;4848681;29;20038;-66
2022/01/27 02:38:51;;;;;;;49.28;22.75;;;;;;;4.62;100.00;102086.47;4851112;29;20037;-66
2022/01/27 02:41:16;;;;;;;45.47;21.98;;;;;;;4.63;100.00;102077.72;4852945;29;20685;-66
2022/01/27 02:43:42;;;;;;;47.47;21.67;;;;;;;4.66;99.88;102095.22;4852155;29;20041;-66
2022/01/27 02:46:25;;;;;;;48.33;20.75;;;;;;;4.68;100.00;102085.63;4858218;29;20068;-66
2022/01/27 02:48:50;;;;;;;33.47;16.45;;;;;;;4.69;100.00;102084.75;4851420;29;20101;-67
2022/01/27 02:51:16;;;;;;;47.75;21.05;;;;;;;4.71;100.00;102081.25;4852329;29;20037;-66
2022/01/27 02:53:41;;;;;;;45.00;22.35;;;;;;;4.72;100.00;102072.50;4851468;29;20037;-66
2022/01/27 02:56:07;;;;;;;48.17;21.73;;;;;;;4.73;100.00;102074.25;4851968;29;20029;-65
2022/01/27 02:58:33;;;;;;;52.60;22.20;;;;;;;4.75;100.00;102066.38;4852548;29;20116;-66
2022/01/27 03:00:58;;;;;;;50.17;22.13;;;;;;;4.76;100.00;102071.59;4837636;29;20409;-66
2022/01/27 03:03:24;;;;;;;42.20;20.58;;;;;;;4.80;100.00;102066.34;4852561;29;20041;-65
2022/01/27 03:05:49;;;;;;;44.83;20.10;;;;;;;4.82;100.00;102077.72;4850939;29;20041;-65
2022/01/27 03:08:15;;;;;;;41.65;19.42;;;;;;;4.83;99.88;102068.97;4852412;29;20048;-65
2022/01/27 03:10:48;;;;;;;46.47;20.48;;;;;;;4.85;100.00;102059.34;4851007;29;20088;-65
2022/01/27 03:13:14;;;;;;;46.25;19.52;;;;;;;4.85;99.84;102064.59;4837090;29;20037;-65
2022/01/27 03:15:39;;;;;;;44.55;19.70;;;;;;;4.87;100.00;102062.84;4851870;29;20044;-65
2022/01/27 03:18:05;;;;;;;37.75;18.58;;;;;;;4.88;100.00;102054.97;4834196;29;20036;-65
2022/01/27 03:20:34;;;;;;;42.95;18.63;;;;;;;4.91;100.00;102045.34;4851059;29;20052;-66
2022/01/27 03:23:00;;;;;;;40.53;18.52;;;;;;;4.92;100.00;102039.22;4852218;29;20037;-65
2022/01/27 03:25:26;;;;;;;43.45;18.45;;;;;;;4.93;100.00;102028.72;4854394;29;20112;-65
2022/01/27 03:27:52;;;;;;;53.47;19.05;;;;;;;4.94;100.00;102034.81;4856121;29;20048;-65
2022/01/27 03:30:17;;;;;;;36.58;17.38;;;;;;;4.95;100.00;102032.19;4854839;29;20041;-65
2022/01/27 03:32:44;;;;;;;44.80;17.85;;;;;;;4.97;100.00;102021.69;4856110;29;20453;-65
2022/01/27 03:35:09;;;;;;;44.42;18.42;;;;;;;4.97;100.00;102014.69;4854779;29;20026;-65
2022/01/27 03:37:35;;;;;;;43.90;17.50;;;;;;;5.00;100.00;102017.31;4839229;29;20044;-65
2022/01/27 03:40:00;;;;;;;44.08;17.02;;;;;;;5.01;100.00;102008.56;4840918;29;20045;-65
2022/01/27 03:42:27;;;;;;;43.00;17.15;;;;;;;5.03;100.00;102000.69;4859621;29;20025;-66
2022/01/27 03:44:52;;;;;;;45.30;18.05;;;;;;;5.05;100.00;102003.31;4854039;29;20045;-66
2022/01/27 03:47:18;;;;;;;38.38;16.70;;;;;;;5.05;100.00;101980.53;4855634;29;20275;-66
2022/01/27 03:49:43;;;;;;;38.85;16.25;;;;;;;5.08;100.00;101979.66;4853627;29;20445;-66
2022/01/27 03:52:09;;;;;;;45.67;16.63;;;;;;;5.08;100.00;101975.31;4855526;29;20041;-66
2022/01/27 03:54:34;;;;;;;38.10;17.08;;;;;;;5.08;100.00;101974.41;4855553;29;20045;-66
2022/01/27 03:57:00;;;;;;;45.08;16.08;;;;;;;5.10;100.00;101983.16;4855809;29;20075;-66
2022/01/27 03:59:27;;;;;;;42.92;17.10;;;;;;;5.11;100.00;101979.63;4855804;29;20025;-65
2022/01/27 04:01:53;;;;;;;42.03;16.45;;;;;;;5.11;100.00;101984.88;4861654;29;20671;-65
2022/01/27 04:04:19;;;;;;;38.08;16.83;;;;;;;5.14;100.00;101990.13;4838165;29;20465;-65
2022/01/27 04:06:49;;;;;;;38.00;16.35;;;;;;;5.15;100.00;101991.88;4840862;29;20045;-65
2022/01/27 04:09:15;;;;;;;36.20;16.27;;;;;;;5.18;100.00;101989.25;4840609;29;20029;-65
2022/01/27 04:11:41;;;;;;;42.03;16.27;;;;;;;5.19;100.00;101980.50;4838678;29;20097;-66
2022/01/27 04:14:07;;;;;;;38.45;15.75;;;;;;;5.21;100.00;101972.59;4852402;29;20041;-66
2022/01/27 04:16:33;;;;;;;36.97;15.50;;;;;;;5.23;100.00;101966.44;4855756;29;20064;-66
2022/01/27 04:18:58;;;;;;;35.88;14.90;;;;;;;5.25;100.00;101967.34;4852568;29;20496;-66
2022/01/27 04:21:24;;;;;;;38.15;15.02;;;;;;;5.27;100.00;101957.69;4855729;29;20781;-66
2022/01/27 04:23:50;;;;;;;38.83;14.32;;;;;;;5.29;100.00;101950.66;4839190;29;20469;-66
2022/01/27 04:26:20;;;;;;;31.83;14.43;;;;;;;5.31;100.00;101953.28;4854865;29;20029;-66
2022/01/27 04:28:47;;;;;;;33.17;13.95;;;;;;;5.32;100.00;101962.06;4837045;29;20052;-65
2022/01/27 04:31:13;;;;;;;39.53;14.82;;;;;;;5.34;100.00;101945.38;4854875;29;20060;-65
2022/01/27 04:33:39;;;;;;;39.60;13.93;;;;;;;5.35;100.00;101946.28;4854362;29;20045;-65
2022/01/27 04:36:17;;;;;;;35.55;13.93;;;;;;;5.37;100.00;101947.13;4854697;29;20120;-65
2022/01/27 04:38:53;;;;;;;34.83;14.35;;;;;;;5.37;100.00;101940.13;4854003;29;20052;-65
2022/01/27 04:41:35;;;;;;;36.72;14.43;;;;;;;5.38;100.00;101939.25;4855173;29;20978;-65
2022/01/27 04:44:19;;;;;;;39.60;14.13;;;;;;;5.39;100.00;101937.50;4852450;29;20054;-65
2022/01/27 04:46:53;;;;;;;32.58;13.18;;;;;;;5.39;100.00;101940.97;4854092;29;20501;-65
2022/01/27 04:49:19;;;;;;;27.95;12.40;;;;;;;5.39;100.00;101938.34;4853324;29;20096;-65
2022/01/27 04:51:44;;;;;;;35.45;13.95;;;;;;;5.43;100.00;101936.59;4854520;29;20468;-65
2022/01/27 04:54:25;;;;;;;32.03;12.68;;;;;;;5.44;100.00;101925.19;4838662;29;20449;-66
2022/01/27 04:56:51;;;;;;;29.38;13.25;;;;;;;5.45;100.00;101932.19;4855016;29;20028;-66
2022/01/27 04:59:25;;;;;;;33.28;12.77;;;;;;;5.47;100.00;101929.56;4853707;29;20488;-66
2022/01/27 05:01:57;;;;;;;34.42;12.82;;;;;;;5.46;100.00;101931.31;4851072;29;20040;-66
2022/01/27 05:04:29;;;;;;;38.72;12.73;;;;;;;5.49;100.00;101935.69;4838887;29;20052;-66
2022/01/27 05:06:54;;;;;;;33.97;12.27;;;;;;;5.49;100.00;101928.66;4838376;29;20190;-66
2022/01/27 05:09:20;;;;;;;37.38;14.07;;;;;;;5.50;100.00;101922.53;4836848;29;20036;-66
2022/01/27 05:11:53;;;;;;;38.92;13.23;;;;;;;5.52;100.00;101918.16;4854141;29;20041;-65
2022/01/27 05:14:22;;;;;;;43.50;13.10;;;;;;;5.52;100.00;101922.53;4853443;29;20041;-65
2022/01/27 05:16:48;;;;;;;37.65;12.93;;;;;;;5.51;100.00;101926.88;4853598;29;20101;-66
2022/01/27 05:19:15;;;;;;;36.00;13.52;;;;;;;5.52;100.00;101912.91;4852808;29;20457;-65
2022/01/27 05:21:41;;;;;;;32.42;13.18;;;;;;;5.53;100.00;101913.75;4852969;29;20045;-66
2022/01/27 05:24:08;;;;;;;38.83;13.25;;;;;;;5.52;100.00;101912.91;4835853;29;20553;-66
2022/01/27 05:26:34;;;;;;;33.97;13.32;;;;;;;5.52;100.00;101915.53;4852322;29;20529;-66
2022/01/27 05:29:00;;;;;;;36.35;13.15;;;;;;;5.53;100.00;101912.00;4837231;29;20077;-67
2022/01/27 05:31:26;;;;;;;36.80;13.80;;;;;;;5.52;100.00;101907.66;4852957;29;20146;-67
2022/01/27 05:33:51;;;;;;;32.65;12.93;;;;;;;5.55;100.00;101906.72;4852161;29;20437;-66
2022/01/27 05:36:17;;;;;;;43.20;14.23;;;;;;;5.55;100.00;101907.59;4852596;29;20037;-67
2022/01/27 05:38:43;;;;;;;37.03;13.73;;;;;;;5.57;100.00;101900.59;4852081;29;20128;-66
2022/01/27 05:41:08;;;;;;;40.53;13.95;;;;;;;5.57;100.00;101900.59;4853710;29;20481;-67
2022/01/27 05:43:34;;;;;;;37.28;14.20;;;;;;;5.58;100.00;101902.31;4851963;29;20057;-67
2022/01/27 05:46:00;;;;;;;38.88;13.00;;;;;;;5.61;100.00;101900.56;4835772;29;20032;-66
2022/01/27 05:48:26;;;;;;;43.28;14.07;;;;;;;5.62;100.00;101894.44;4851570;29;20112;-66
2022/01/27 05:50:51;;;;;;;41.58;14.65;;;;;;;5.61;100.00;101895.31;4858998;29;20043;-66
2022/01/27 05:53:17;;;;;;;40.40;13.98;;;;;;;5.58;100.00;101891.81;4851251;29;20033;-66
2022/01/27 05:55:42;;;;;;;42.15;15.73;;;;;;;5.57;100.00;101890.06;4839950;29;20035;-66
2022/01/27 05:58:08;;;;;;;42.15;14.27;;;;;;;5.56;100.00;101885.69;4852034;29;20032;-66
2022/01/27 06:00:33;;;;;;;41.85;14.23;;;;;;;5.56;100.00;101888.34;4851558;29;20611;-66
2022/01/27 06:03:00;;;;;;;42.95;14.00;;;;;;;5.55;100.00;101897.09;4851330;29;20049;-66
2022/01/27 06:05:26;;;;;;;41.08;13.82;;;;;;;5.55;100.00;101896.22;4851927;29;20033;-66
2022/01/27 06:07:52;;;;;;;38.88;13.40;;;;;;;5.53;100.00;101891.00;4850302;29;20078;-66
2022/01/27 06:10:18;;;;;;;43.47;14.63;;;;;;;5.54;100.00;101884.84;4851568;29;20564;-65
2022/01/27 06:12:53;;;;;;;41.35;14.57;;;;;;;5.53;100.00;101890.09;4836383;29;20399;-65
2022/01/27 06:15:19;;;;;;;43.03;14.43;;;;;;;5.53;100.00;101880.50;4853027;29;20033;-65
2022/01/27 06:17:45;;;;;;;41.15;13.57;;;;;;;5.54;100.00;101895.38;4851899;29;20036;-66
2022/01/27 06:20:11;;;;;;;41.42;13.98;;;;;;;5.54;100.00;101882.22;4851693;29;20409;-65
2022/01/27 06:22:36;;;;;;;50.15;15.93;;;;;;;5.55;100.00;101873.47;4851086;29;20065;-65
2022/01/27 06:25:03;;;;;;;49.83;15.93;;;;;;;5.55;100.00;101880.44;4852159;29;20444;-65
2022/01/27 06:27:28;;;;;;;43.92;14.77;;;;;;;5.56;100.00;101874.34;4814049;29;1133715;-65
2022/01/27 06:29:54;;;;;;;39.63;14.25;;;;;;;5.56;100.00;101882.22;4851866;29;20056;-66
2022/01/27 06:32:19;;;;;;;42.60;13.75;;;;;;;5.56;100.00;101877.81;4852332;29;21449;-65
2022/01/27 06:34:46;;;;;;;46.80;14.82;;;;;;;5.55;100.00;101873.47;4851481;29;20037;-65
2022/01/27 06:37:12;;;;;;;39.90;14.40;;;;;;;5.56;100.00;101885.69;4852181;29;20064;-65
2022/01/27 06:39:37;;;;;;;47.22;14.75;;;;;;;5.57;100.00;101882.19;4851452;29;20111;-65
2022/01/27 06:42:05;;;;;;;40.90;14.18;;;;;;;5.58;100.00;101876.03;4837759;29;20056;-66
2022/01/27 06:44:30;;;;;;;32.78;13.48;;;;;;;5.58;100.00;101883.94;4849706;29;20041;-65
2022/01/27 06:46:56;;;;;;;40.13;14.18;;;;;;;5.60;100.00;101877.81;4851827;29;20713;-65
2022/01/27 06:49:21;;;;;;;37.63;13.35;;;;;;;5.60;100.00;101877.81;4851786;29;20047;-65
2022/01/27 06:51:47;;;;;;;39.83;13.75;;;;;;;5.62;100.00;101881.28;4853583;29;20536;-64
2022/01/27 06:54:15;;;;;;;39.50;14.65;;;;;;;5.64;100.00;101882.16;4837243;29;20052;-66
2022/01/27 06:56:41;;;;;;;38.63;13.85;;;;;;;5.64;100.00;101875.16;4852479;29;21570;-65
2022/01/27 06:59:06;;;;;;;37.72;13.27;;;;;;;5.65;100.00;101876.00;4850325;29;20045;-66
2022/01/27 07:01:32;;;;;;;40.80;12.38;;;;;;;5.66;100.00;101873.38;4853069;29;20055;-66
2022/01/27 07:03:57;;;;;;;35.53;13.50;;;;;;;5.66;100.00;101870.75;4851050;29;20045;-66
2022/01/27 07:06:23;;;;;;;32.13;13.20;;;;;;;5.67;100.00;101884.75;4852887;29;20058;-66
2022/01/27 07:08:48;;;;;;;42.03;13.48;;;;;;;5.68;100.00;101881.25;4852517;29;20124;-66
2022/01/27 07:11:14;;;;;;;38.45;13.90;;;;;;;5.68;100.00;101873.38;4835480;29;20037;-66
2022/01/27 07:13:40;;;;;;;39.25;13.38;;;;;;;5.70;100.00;101868.97;4852365;29;20056;-66
2022/01/27 07:16:08;;;;;;;32.58;11.90;;;;;;;5.71;100.00;101875.94;4851063;29;20037;-66
2022/01/27 07:18:34;;;;;;;32.70;12.23;;;;;;;5.71;100.00;101879.47;4851072;29;20812;-66
2022/01/27 07:21:00;;;;;;;40.15;12.75;;;;;;;5.74;100.00;101877.69;4848062;29;20029;-66
2022/01/27 07:23:25;;;;;;;38.22;11.98;;;;;;;5.74;100.00;101880.31;4851851;29;20035;-66
2022/01/27 07:25:51;;;;;;;40.03;11.57;;;;;;;5.76;100.00;101873.28;4852530;29;20493;-66
2022/01/27 07:28:16;;;;;;;40.47;12.00;;;;;;;5.79;100.00;101874.16;4852748;29;20105;-66
2022/01/27 07:30:42;;;;;;;40.25;11.70;;;;;;;5.80;100.00;101873.25;4858305;29;20036;-66
2022/01/27 07:33:07;;;;;;;39.95;12.13;;;;;;;5.83;100.00;101886.34;4852745;29;20049;-66
2022/01/27 07:35:33;;;;;;;39.10;11.18;;;;;;;5.84;100.00;101898.63;4851276;29;20036;-66
2022/01/27 07:37:58;;;;;;;37.55;10.63;;;;;;;5.87;100.00;101887.19;4852172;29;20165;-66
2022/01/27 07:40:24;;;;;;;40.25;11.18;;;;;;;5.88;100.00;101885.47;4851033;29;21664;-66
2022/01/27 07:42:49;;;;;;;34.13;10.95;;;;;;;5.90;100.00;101870.53;4850406;29;22050;-66
2022/01/27 07:45:15;;;;;;;29.38;9.88;;;;;;;5.93;100.00;101875.75;4850798;29;20037;-66
2022/01/27 07:47:40;;;;;;;35.97;9.80;;;;;;;5.94;100.00;101881.00;4852285;29;20073;-66
2022/01/27 07:50:07;;;;;;;28.25;9.57;;;;;;;5.98;100.00;101882.72;4850964;29;20486;-66
2022/01/27 07:52:32;;;;;;;31.80;10.10;;;;;;;6.02;100.00;101880.97;4837210;29;20049;-67
2022/01/27 07:54:58;;;;;;;30.45;9.32;;;;;;;6.08;100.00;101885.28;4849836;29;20052;-67
2022/01/27 07:57:23;;;;;;;31.50;9.55;;;;;;;6.10;100.00;101879.13;4850264;29;20491;-67
2022/01/27 07:59:49;;;;;;;31.17;8.82;;;;;;;6.13;100.00;101872.97;4843280;29;20087;-67
2022/01/27 08:02:14;;;;;;;28.42;9.30;;;;;;;6.14;100.00;101879.97;4851514;29;20033;-67
2022/01/27 08:04:40;;;;;;;29.65;8.70;;;;;;;6.18;100.00;101888.69;4835024;29;20065;-67
2022/01/27 08:07:08;;;;;;;32.08;9.07;;;;;;;6.19;100.00;101883.44;4851946;29;20052;-67
2022/01/27 08:09:33;;;;;;;23.48;8.15;;;;;;;6.22;100.00;101885.16;4833602;29;20049;-67
2022/01/27 08:11:59;;;;;;;29.00;7.72;;;;;;;6.25;100.00;101877.22;4851909;29;20565;-67
2022/01/27 08:14:24;;;;;;;30.90;9.15;;;;;;;6.29;100.00;101881.56;4850938;29;20140;-67
2022/01/27 08:16:50;;;;;;;25.25;7.82;;;;;;;6.31;100.00;101874.53;4851073;29;20686;-67
2022/01/27 08:19:16;;;;;;;29.20;7.97;;;;;;;6.35;100.00;101873.63;4848363;29;20676;-67
2022/01/27 08:21:41;;;;;;;32.20;8.05;;;;;;;6.37;100.00;101869.22;4836958;29;20076;-66
2022/01/27 08:24:07;;;;;;;34.33;8.02;;;;;;;6.41;100.00;101871.78;4851594;29;20041;-67
2022/01/27 08:26:44;;;;;;;30.92;7.55;;;;;;;6.43;100.00;101877.91;4851918;29;20613;-67
2022/01/27 08:29:21;;;;;;;31.00;7.50;;;;;;;6.48;100.00;101881.38;4851506;29;20059;-67
2022/01/27 08:31:59;;;;;;;30.58;8.05;;;;;;;6.50;100.00;101887.47;4837332;29;20040;-67
2022/01/27 08:34:32;;;;;;;28.92;7.35;;;;;;;6.52;100.00;101890.97;4851559;29;20040;-67
2022/01/27 08:36:59;;;;;;;31.33;7.75;;;;;;;6.53;100.00;101887.44;4838820;29;20104;-67
2022/01/27 08:39:25;;;;;;;29.35;7.40;;;;;;;6.52;100.00;101873.44;4835434;29;20056;-67
2022/01/27 08:41:51;;;;;;;29.60;7.03;;;;;;;6.52;100.00;101880.44;4852305;29;20436;-68
2022/01/27 08:44:17;;;;;;;24.23;6.53;;;;;;;6.54;100.00;101870.75;4849939;29;20043;-68
2022/01/27 08:46:43;;;;;;;28.23;6.88;;;;;;;6.55;100.00;101882.16;4850372;29;20081;-68
2022/01/27 08:49:09;;;;;;;31.67;7.53;;;;;;;6.56;100.00;101892.69;4849308;29;20052;-68
2022/01/27 08:51:34;;;;;;;24.60;6.47;;;;;;;6.59;100.00;101889.16;4836975;29;20066;-68
2022/01/27 08:54:00;;;;;;;31.25;7.18;;;;;;;6.60;100.00;101883.00;4849165;29;20069;-68
2022/01/27 08:56:25;;;;;;;25.88;6.50;;;;;;;6.63;100.00;101877.66;4852086;29;20065;-67
2022/01/27 08:58:51;;;;;;;22.05;5.88;;;;;;;6.65;100.00;101883.81;4850804;29;20044;-68
2022/01/27 09:01:17;;;;;;;20.60;5.97;;;;;;;6.66;100.00;101881.13;4850226;29;20052;-66
2022/01/27 09:03:42;;;;;;;27.45;6.68;;;;;;;6.68;100.00;101891.66;4848146;29;20128;-67
2022/01/27 09:06:08;;;;;;;25.60;5.88;;;;;;;6.71;100.00;101880.22;4851019;29;20119;-66
2022/01/27 09:08:34;;;;;;;26.23;6.22;;;;;;;6.73;100.00;101878.44;4851009;29;20434;-66
2022/01/27 09:10:59;;;;;;;25.63;6.15;;;;;;;6.74;100.00;101881.06;4837963;29;20108;-67
2022/01/27 09:13:25;;;;;;;22.73;6.50;;;;;;;6.77;100.00;101888.91;4849495;29;20092;-67
2022/01/27 09:15:51;;;;;;;32.03;7.00;;;;;;;6.79;100.00;101888.88;4832763;29;20042;-67
2022/01/27 09:18:17;;;;;;;26.52;5.88;;;;;;;6.81;100.00;101886.25;4839234;29;20048;-67
2022/01/27 09:20:44;;;;;;;21.08;5.82;;;;;;;6.82;100.00;101873.06;4848116;29;20044;-67
2022/01/27 09:23:14;;;;;;;30.15;6.35;;;;;;;6.84;100.00;101887.06;4850917;29;20051;-67
2022/01/27 09:25:49;;;;;;;26.65;5.97;;;;;;;6.85;100.00;101898.44;4852772;29;20033;-67
2022/01/27 09:28:15;;;;;;;26.52;6.63;;;;;;;6.87;100.00;101907.22;4849701;29;20831;-65
2022/01/27 09:30:42;;;;;;;24.23;6.30;;;;;;;6.87;100.00;101904.59;4834118;29;20048;-65
2022/01/27 09:33:08;;;;;;;33.55;7.28;;;;;;;6.88;100.00;101901.06;4851366;29;20039;-65
2022/01/27 09:35:34;;;;;;;35.55;6.28;;;;;;;6.88;100.00;101893.16;4848890;29;20037;-66
2022/01/27 09:38:00;;;;;;;31.40;6.57;;;;;;;6.89;100.00;101900.16;4850813;29;20037;-66
2022/01/27 09:40:27;;;;;;;23.23;5.85;;;;;;;6.90;100.00;101891.38;4834844;29;20493;-66
2022/01/27 09:42:54;;;;;;;24.08;6.18;;;;;;;6.90;100.00;101902.78;4849538;29;20029;-66
2022/01/27 09:45:21;;;;;;;21.85;5.95;;;;;;;6.93;100.00;101913.25;4849469;29;20064;-65
2022/01/27 09:47:55;;;;;;;24.30;5.50;;;;;;;6.96;100.00;101906.25;4835076;29;20060;-65
2022/01/27 09:53:11;;;;;;;26.42;6.05;;;;;;;7.01;100.00;101910.53;4848878;29;20285;-66
2022/01/27 09:55:37;;;;;;;24.10;5.32;;;;;;;7.05;100.00;101916.63;4849949;29;20666;-66
2022/01/27 09:58:03;;;;;;;31.98;5.53;;;;;;;7.11;100.00;101920.94;4850437;29;20033;-66
2022/01/27 10:00:29;;;;;;;28.75;5.63;;;;;;;7.18;100.00;101917.31;4849156;29;20506;-66
2022/01/27 10:03:16;;;;;;;26.00;5.28;;;;;;;7.24;100.00;101919.03;4848122;29;20085;-66
2022/01/27 10:05:43;;;;;;;18.88;5.53;;;;;;;7.30;100.00;101926.84;4849033;29;20046;-66
2022/01/27 10:08:13;;;;;;;23.98;5.20;;;;;;;7.31;100.00;101924.16;4847354;29;20160;-66
2022/01/27 10:10:41;;;;;;;26.27;5.47;;;;;;;7.32;100.00;101912.72;4846069;29;20041;-66
2022/01/27 10:13:10;;;;;;;25.63;5.35;;;;;;;7.35;100.00;101925.00;4849367;29;20518;-66
2022/01/27 10:15:37;;;;;;;31.58;6.57;;;;;;;7.36;100.00;101924.13;4848704;29;20102;-66
2022/01/27 10:18:09;;;;;;;24.27;5.38;;;;;;;7.36;100.00;101916.22;4849074;29;20057;-66
2022/01/27 10:20:39;;;;;;;20.67;4.88;;;;;;;7.36;100.00;101918.84;4847654;29;20085;-65
2022/01/27 10:23:15;;;;;;;32.47;5.45;;;;;;;7.38;100.00;101924.97;4849839;29;20473;-65
2022/01/27 10:25:53;;;;;;;18.52;4.80;;;;;;;7.44;100.00;101919.59;4849011;29;20036;-65
2022/01/27 10:28:37;;;;;;;21.33;4.85;;;;;;;7.51;100.00;101911.59;4849124;29;20472;-65
2022/01/27 10:31:08;;;;;;;20.90;5.28;;;;;;;7.56;100.00;101923.81;4836231;29;20074;-66
2022/01/27 10:34:05;;;;;;;27.63;4.80;;;;;;;7.63;100.00;101923.72;4836613;29;20049;-65
2022/01/27 10:36:36;;;;;;;21.02;5.28;;;;;;;7.65;100.00;101930.69;4840184;29;20124;-69
2022/01/27 10:39:05;;;;;;;30.25;4.55;;;;;;;7.70;100.00;101925.34;4848934;29;20317;-68
2022/01/27 10:41:33;;;;;;;21.35;4.47;;;;;;;7.72;100.00;101929.72;4849683;29;20077;-69
2022/01/27 10:44:16;;;;;;;20.15;4.38;;;;;;;7.75;100.00;101932.28;4848321;29;20040;-68
2022/01/27 10:47:13;;;;;;;18.15;4.63;;;;;;;7.80;100.00;101932.19;4849895;29;20034;-68
2022/01/27 10:49:52;;;;;;;18.65;4.03;;;;;;;7.83;100.00;101932.16;4834395;29;20037;-68
2022/01/27 10:52:32;;;;;;;17.83;4.80;;;;;;;7.86;100.00;101932.09;4847756;29;20051;-68
2022/01/27 10:55:03;;;;;;;15.82;4.25;;;;;;;7.90;100.00;101932.91;4848087;29;20078;-68
2022/01/27 10:57:29;;;;;;;21.33;4.35;;;;;;;7.92;100.00;101938.19;4836217;29;20038;-68
2022/01/27 11:00:13;;;;;;;17.10;3.97;;;;;;;7.92;100.00;101927.63;4848310;29;21875;-68
2022/01/27 11:02:48;;;;;;;22.73;4.70;;;;;;;7.94;100.00;101939.91;4846751;29;20472;-68
2022/01/27 11:05:19;;;;;;;28.20;4.20;;;;;;;7.96;100.00;101951.28;4845171;29;20047;-65
2022/01/27 11:07:45;;;;;;;21.58;4.47;;;;;;;7.94;100.00;101937.25;4849072;29;20037;-65
2022/01/27 11:10:11;;;;;;;19.17;4.10;;;;;;;7.94;100.00;101931.97;4847794;29;20053;-65
2022/01/27 11:12:36;;;;;;;24.40;4.72;;;;;;;7.94;100.00;101931.97;4849438;29;20396;-65
2022/01/27 11:15:03;;;;;;;25.65;4.50;;;;;;;7.93;100.00;101929.38;4853482;29;20053;-66
2022/01/27 11:17:33;;;;;;;22.20;4.00;;;;;;;7.94;100.00;101934.63;4831323;29;20080;-66
2022/01/27 11:20:19;;;;;;;25.00;4.22;;;;;;;7.97;100.00;101939.88;4851138;29;20689;-66
2022/01/27 11:28:00;;;;;;;24.77;3.90;;;;;;;8.03;100.00;101923.06;4833342;29;20710;-65
2022/01/27 11:30:59;;;;;;;23.00;4.18;;;;;;;8.07;100.00;101934.41;4849177;29;20037;-65
2022/01/27 11:33:33;;;;;;;21.65;4.25;;;;;;;8.08;100.00;101925.59;4845685;29;20088;-66
2022/01/27 11:36:13;;;;;;;25.30;3.97;;;;;;;8.08;100.00;101931.75;4848836;29;20136;-65
2022/01/27 11:38:40;;;;;;;30.08;4.82;;;;;;;8.08;100.00;101936.16;4848031;29;20505;-65
2022/01/27 11:41:06;;;;;;;24.20;4.18;;;;;;;8.07;100.00;101930.00;4837937;29;20044;-65
2022/01/27 11:43:34;;;;;;;25.98;5.40;;;;;;;8.08;100.00;101928.25;4849865;29;20393;-65
2022/01/27 11:46:14;;;;;;;22.13;3.85;;;;;;;8.11;100.00;101933.44;4851302;29;20488;-65
2022/01/27 11:48:39;;;;;;;20.10;3.95;;;;;;;8.14;100.00;101931.66;4849464;29;20049;-66
2022/01/27 11:51:07;;;;;;;27.45;4.55;;;;;;;8.17;100.00;101930.69;4850237;29;20040;-65
2022/01/27 11:53:48;;;;;;;31.02;4.90;;;;;;;8.17;100.00;101930.69;4838170;29;20227;-64
2022/01/27 11:56:23;;;;;;;15.98;4.47;;;;;;;8.18;100.00;101932.47;4852321;29;20040;-64
2022/01/27 11:58:51;;;;;;;18.95;3.97;;;;;;;8.17;100.00;101924.56;4851668;29;20041;-65